sensor_id;sensor_type;location;lat;lon;timestamp;temperature;humidity
19966;DHT22;10144;50.874;4.762;2023-06-10T00:01:12;21.10;99.90
19966;DHT22;10144;50.874;4.762;2023-06-10T00:03:38;21.00;99.90
19966;DHT22;10144;50.874;4.762;2023-06-10T00:06:05;21.10;99.90
19966;DHT22;10144;50.874;4.762;2023-06-10T00:08:31;21.10;99.90
19966;DHT22;10144;50.874;4.762;2023-06-10T00:10:58;21.10;99.90
19966;DHT22;10144;50.874;4.762;2023-06-10T00:13:30;21.10;99.90
19966;DHT22;10144;50.874;4.762;2023-06-10T00:16:13;21.00;99.90
19966;DHT22;10144;50.874;4.762;2023-06-10T00:18:41;21.00;99.90
19966;DHT22;10144;50.874;4.762;2023-06-10T00:21:09;20.90;99.90
19966;DHT22;10144;50.874;4.762;2023-06-10T00:23:38;20.90;99.90
19966;DHT22;10144;50.874;4.762;2023-06-10T00:26:07;20.80;99.90
19966;DHT22;10144;50.874;4.762;2023-06-10T00:28:44;20.80;99.90
19966;DHT22;10144;50.874;4.762;2023-06-10T00:31:13;20.70;99.90
19966;DHT22;10144;50.874;4.762;2023-06-10T00:33:42;20.70;99.90
19966;DHT22;10144;50.874;4.762;2023-06-10T00:36:14;20.80;99.90
19966;DHT22;10144;50.874;4.762;2023-06-10T00:38:40;20.80;99.90
19966;DHT22;10144;50.874;4.762;2023-06-10T00:41:07;20.70;99.90
19966;DHT22;10144;50.874;4.762;2023-06-10T00:43:34;20.70;99.90
19966;DHT22;10144;50.874;4.762;2023-06-10T00:46:12;20.70;99.90
19966;DHT22;10144;50.874;4.762;2023-06-10T00:48:42;20.70;99.90
19966;DHT22;10144;50.874;4.762;2023-06-10T00:51:25;20.60;99.90
19966;DHT22;10144;50.874;4.762;2023-06-10T00:53:54;20.60;99.90
19966;DHT22;10144;50.874;4.762;2023-06-10T00:56:22;20.50;99.90
19966;DHT22;10144;50.874;4.762;2023-06-10T00:59:00;20.50;99.90
19966;DHT22;10144;50.874;4.762;2023-06-10T01:01:28;20.50;99.90
19966;DHT22;10144;50.874;4.762;2023-06-10T01:04:13;20.40;99.90
19966;DHT22;10144;50.874;4.762;2023-06-10T01:09:58;20.40;99.90
19966;DHT22;10144;50.874;4.762;2023-06-10T01:15:31;20.40;99.90
19966;DHT22;10144;50.874;4.762;2023-06-10T01:18:10;20.30;99.90
19966;DHT22;10144;50.874;4.762;2023-06-10T01:20:43;20.30;99.90
19966;DHT22;10144;50.874;4.762;2023-06-10T01:23:13;20.20;99.90
19966;DHT22;10144;50.874;4.762;2023-06-10T01:25:53;20.20;99.90
19966;DHT22;10144;50.874;4.762;2023-06-10T01:31:16;20.10;99.90
19966;DHT22;10144;50.874;4.762;2023-06-10T01:36:48;19.90;99.90
19966;DHT22;10144;50.874;4.762;2023-06-10T01:39:16;19.90;99.90
19966;DHT22;10144;50.874;4.762;2023-06-10T01:41:47;19.90;99.90
19966;DHT22;10144;50.874;4.762;2023-06-10T01:44:23;19.80;99.90
19966;DHT22;10144;50.874;4.762;2023-06-10T01:46:52;19.80;99.90
19966;DHT22;10144;50.874;4.762;2023-06-10T01:49:21;19.70;99.90
19966;DHT22;10144;50.874;4.762;2023-06-10T01:51:52;19.60;99.90
19966;DHT22;10144;50.874;4.762;2023-06-10T01:54:24;19.70;99.90
19966;DHT22;10144;50.874;4.762;2023-06-10T01:56:50;19.60;99.90
19966;DHT22;10144;50.874;4.762;2023-06-10T01:59:17;19.60;99.90
19966;DHT22;10144;50.874;4.762;2023-06-10T02:01:46;19.50;99.90
19966;DHT22;10144;50.874;4.762;2023-06-10T02:04:18;19.50;99.90
19966;DHT22;10144;50.874;4.762;2023-06-10T02:09:55;19.40;99.90
19966;DHT22;10144;50.874;4.762;2023-06-10T02:12:24;19.40;99.90
19966;DHT22;10144;50.874;4.762;2023-06-10T02:14:51;19.30;99.90
19966;DHT22;10144;50.874;4.762;2023-06-10T02:17:41;19.30;99.90
19966;DHT22;10144;50.874;4.762;2023-06-10T02:20:10;19.40;99.90
19966;DHT22;10144;50.874;4.762;2023-06-10T02:22:39;19.30;99.90
19966;DHT22;10144;50.874;4.762;2023-06-10T02:28:15;19.20;99.90
19966;DHT22;10144;50.874;4.762;2023-06-10T02:30:41;19.10;99.90
19966;DHT22;10144;50.874;4.762;2023-06-10T02:33:18;19.10;99.90
19966;DHT22;10144;50.874;4.762;2023-06-10T02:35:48;19.00;99.90
19966;DHT22;10144;50.874;4.762;2023-06-10T02:38:17;19.00;99.90
19966;DHT22;10144;50.874;4.762;2023-06-10T02:40:49;19.10;99.90
19966;DHT22;10144;50.874;4.762;2023-06-10T02:43:18;19.10;99.90
19966;DHT22;10144;50.874;4.762;2023-06-10T02:45:47;19.10;99.90
19966;DHT22;10144;50.874;4.762;2023-06-10T02:48:15;19.10;99.90
19966;DHT22;10144;50.874;4.762;2023-06-10T02:50:41;19.00;99.90
19966;DHT22;10144;50.874;4.762;2023-06-10T02:53:10;18.90;99.90
19966;DHT22;10144;50.874;4.762;2023-06-10T02:55:39;18.90;99.90
19966;DHT22;10144;50.874;4.762;2023-06-10T02:58:08;18.80;99.90
19966;DHT22;10144;50.874;4.762;2023-06-10T03:00:36;18.90;99.90
19966;DHT22;10144;50.874;4.762;2023-06-10T03:06:27;18.60;99.90
19966;DHT22;10144;50.874;4.762;2023-06-10T03:09:14;18.60;99.90
19966;DHT22;10144;50.874;4.762;2023-06-10T03:11:41;18.70;99.90
19966;DHT22;10144;50.874;4.762;2023-06-10T03:14:10;18.70;99.90
19966;DHT22;10144;50.874;4.762;2023-06-10T03:16:39;18.70;99.90
19966;DHT22;10144;50.874;4.762;2023-06-10T03:19:08;18.70;99.90
19966;DHT22;10144;50.874;4.762;2023-06-10T03:24:54;18.70;99.90
19966;DHT22;10144;50.874;4.762;2023-06-10T03:27:23;18.60;99.90
19966;DHT22;10144;50.874;4.762;2023-06-10T03:29:52;18.60;99.90
19966;DHT22;10144;50.874;4.762;2023-06-10T03:35:13;18.40;99.90
19966;DHT22;10144;50.874;4.762;2023-06-10T03:37:42;18.50;99.90
19966;DHT22;10144;50.874;4.762;2023-06-10T03:40:13;18.50;99.90
19966;DHT22;10144;50.874;4.762;2023-06-10T03:42:40;18.50;99.90
19966;DHT22;10144;50.874;4.762;2023-06-10T03:45:16;18.40;99.90
19966;DHT22;10144;50.874;4.762;2023-06-10T03:47:46;18.30;99.90
19966;DHT22;10144;50.874;4.762;2023-06-10T03:50:16;18.30;99.90
19966;DHT22;10144;50.874;4.762;2023-06-10T03:52:45;18.30;99.90
19966;DHT22;10144;50.874;4.762;2023-06-10T03:55:14;18.40;99.90
19966;DHT22;10144;50.874;4.762;2023-06-10T03:57:43;18.40;99.90
19966;DHT22;10144;50.874;4.762;2023-06-10T04:00:41;18.50;99.90
19966;DHT22;10144;50.874;4.762;2023-06-10T04:03:12;18.40;99.90
19966;DHT22;10144;50.874;4.762;2023-06-10T04:05:40;18.50;99.90
19966;DHT22;10144;50.874;4.762;2023-06-10T04:08:10;18.50;99.90
19966;DHT22;10144;50.874;4.762;2023-06-10T04:10:44;18.50;99.90
19966;DHT22;10144;50.874;4.762;2023-06-10T04:13:20;18.50;99.90
19966;DHT22;10144;50.874;4.762;2023-06-10T04:15:55;18.50;99.90
19966;DHT22;10144;50.874;4.762;2023-06-10T04:18:22;18.60;99.90
19966;DHT22;10144;50.874;4.762;2023-06-10T04:20:51;18.50;99.90
19966;DHT22;10144;50.874;4.762;2023-06-10T04:23:22;18.70;99.90
19966;DHT22;10144;50.874;4.762;2023-06-10T04:25:50;18.70;99.90
19966;DHT22;10144;50.874;4.762;2023-06-10T04:28:16;18.80;99.90
19966;DHT22;10144;50.874;4.762;2023-06-10T04:30:45;19.00;99.90
19966;DHT22;10144;50.874;4.762;2023-06-10T04:33:14;19.30;99.90
19966;DHT22;10144;50.874;4.762;2023-06-10T04:35:43;19.40;99.90
19966;DHT22;10144;50.874;4.762;2023-06-10T04:38:09;19.50;99.90
19966;DHT22;10144;50.874;4.762;2023-06-10T04:40:41;19.60;99.90
19966;DHT22;10144;50.874;4.762;2023-06-10T04:43:10;19.60;99.90
19966;DHT22;10144;50.874;4.762;2023-06-10T04:45:44;19.60;99.90
19966;DHT22;10144;50.874;4.762;2023-06-10T04:48:15;19.90;99.90
19966;DHT22;10144;50.874;4.762;2023-06-10T04:50:43;20.00;99.90
19966;DHT22;10144;50.874;4.762;2023-06-10T04:53:15;20.00;99.90
19966;DHT22;10144;50.874;4.762;2023-06-10T04:55:42;20.30;99.90
19966;DHT22;10144;50.874;4.762;2023-06-10T04:58:09;20.40;99.90
19966;DHT22;10144;50.874;4.762;2023-06-10T05:00:46;20.60;99.90
19966;DHT22;10144;50.874;4.762;2023-06-10T05:03:15;20.70;99.90
19966;DHT22;10144;50.874;4.762;2023-06-10T05:05:50;20.80;99.90
19966;DHT22;10144;50.874;4.762;2023-06-10T05:08:19;21.00;99.90
19966;DHT22;10144;50.874;4.762;2023-06-10T05:10:48;21.00;99.90
19966;DHT22;10144;50.874;4.762;2023-06-10T05:13:17;21.20;99.90
19966;DHT22;10144;50.874;4.762;2023-06-10T05:15:49;21.20;99.90
19966;DHT22;10144;50.874;4.762;2023-06-10T05:21:13;21.50;99.90
19966;DHT22;10144;50.874;4.762;2023-06-10T05:23:45;21.60;99.90
19966;DHT22;10144;50.874;4.762;2023-06-10T05:26:14;21.70;99.90
19966;DHT22;10144;50.874;4.762;2023-06-10T05:28:43;21.70;99.90
19966;DHT22;10144;50.874;4.762;2023-06-10T05:31:10;21.80;99.90
19966;DHT22;10144;50.874;4.762;2023-06-10T05:33:39;21.90;99.90
19966;DHT22;10144;50.874;4.762;2023-06-10T05:36:15;21.90;99.90
19966;DHT22;10144;50.874;4.762;2023-06-10T05:38:59;22.00;99.90
19966;DHT22;10144;50.874;4.762;2023-06-10T05:41:31;22.20;99.90
19966;DHT22;10144;50.874;4.762;2023-06-10T05:50:29;22.50;99.90
19966;DHT22;10144;50.874;4.762;2023-06-10T05:56:18;22.80;99.90
19966;DHT22;10144;50.874;4.762;2023-06-10T06:02:05;23.40;99.90
19966;DHT22;10144;50.874;4.762;2023-06-10T06:07:53;23.40;99.90
19966;DHT22;10144;50.874;4.762;2023-06-10T06:13:41;23.70;99.90
19966;DHT22;10144;50.874;4.762;2023-06-10T06:19:29;24.40;99.90
19966;DHT22;10144;50.874;4.762;2023-06-10T06:25:17;24.20;99.90
19966;DHT22;10144;50.874;4.762;2023-06-10T06:28:07;24.60;99.90
19966;DHT22;10144;50.874;4.762;2023-06-10T06:33:57;24.90;99.90
19966;DHT22;10144;50.874;4.762;2023-06-10T06:36:24;25.30;99.90
19966;DHT22;10144;50.874;4.762;2023-06-10T06:38:51;25.40;99.90
19966;DHT22;10144;50.874;4.762;2023-06-10T06:41:39;25.70;99.90
19966;DHT22;10144;50.874;4.762;2023-06-10T06:44:07;26.40;99.90
19966;DHT22;10144;50.874;4.762;2023-06-10T06:46:42;26.60;99.90
19966;DHT22;10144;50.874;4.762;2023-06-10T06:49:11;26.80;99.90
19966;DHT22;10144;50.874;4.762;2023-06-10T06:51:42;26.60;99.90
19966;DHT22;10144;50.874;4.762;2023-06-10T06:54:17;26.40;99.90
19966;DHT22;10144;50.874;4.762;2023-06-10T06:56:46;26.70;99.90
19966;DHT22;10144;50.874;4.762;2023-06-10T06:59:15;27.20;99.90
19966;DHT22;10144;50.874;4.762;2023-06-10T07:01:42;27.30;99.90
19966;DHT22;10144;50.874;4.762;2023-06-10T07:04:11;27.40;99.90
19966;DHT22;10144;50.874;4.762;2023-06-10T07:06:39;27.60;99.90
19966;DHT22;10144;50.874;4.762;2023-06-10T07:09:39;27.90;99.90
19966;DHT22;10144;50.874;4.762;2023-06-10T07:12:06;27.60;99.90
19966;DHT22;10144;50.874;4.762;2023-06-10T07:14:33;28.10;99.90
19966;DHT22;10144;50.874;4.762;2023-06-10T07:17:01;28.70;99.90
19966;DHT22;10144;50.874;4.762;2023-06-10T07:19:30;29.20;99.90
19966;DHT22;10144;50.874;4.762;2023-06-10T07:21:59;29.20;99.90
19966;DHT22;10144;50.874;4.762;2023-06-10T07:24:25;29.60;99.90
19966;DHT22;10144;50.874;4.762;2023-06-10T07:26:54;30.10;99.90
19966;DHT22;10144;50.874;4.762;2023-06-10T07:29:22;30.50;99.90
19966;DHT22;10144;50.874;4.762;2023-06-10T07:31:54;30.70;99.90
19966;DHT22;10144;50.874;4.762;2023-06-10T07:34:22;30.60;99.90
19966;DHT22;10144;50.874;4.762;2023-06-10T07:36:50;30.20;99.90
19966;DHT22;10144;50.874;4.762;2023-06-10T07:39:15;30.10;99.90
19966;DHT22;10144;50.874;4.762;2023-06-10T07:41:41;29.90;99.90
19966;DHT22;10144;50.874;4.762;2023-06-10T07:44:10;29.90;99.90
19966;DHT22;10144;50.874;4.762;2023-06-10T07:46:38;29.70;99.90
19966;DHT22;10144;50.874;4.762;2023-06-10T07:49:06;29.50;99.90
19966;DHT22;10144;50.874;4.762;2023-06-10T07:51:34;29.70;99.90
19966;DHT22;10144;50.874;4.762;2023-06-10T07:54:02;30.20;99.90
19966;DHT22;10144;50.874;4.762;2023-06-10T07:56:31;30.70;99.90
19966;DHT22;10144;50.874;4.762;2023-06-10T07:59:00;31.40;99.90
19966;DHT22;10144;50.874;4.762;2023-06-10T08:01:32;31.20;99.90
19966;DHT22;10144;50.874;4.762;2023-06-10T08:04:27;31.40;99.90
19966;DHT22;10144;50.874;4.762;2023-06-10T08:06:56;31.30;99.90
19966;DHT22;10144;50.874;4.762;2023-06-10T08:09:22;31.50;99.90
19966;DHT22;10144;50.874;4.762;2023-06-10T08:11:50;31.40;99.90
19966;DHT22;10144;50.874;4.762;2023-06-10T08:14:16;30.70;99.90
19966;DHT22;10144;50.874;4.762;2023-06-10T08:16:43;30.70;99.90
19966;DHT22;10144;50.874;4.762;2023-06-10T08:19:22;30.60;99.90
19966;DHT22;10144;50.874;4.762;2023-06-10T08:21:51;31.20;99.90
19966;DHT22;10144;50.874;4.762;2023-06-10T08:24:23;31.30;99.90
19966;DHT22;10144;50.874;4.762;2023-06-10T08:26:52;31.30;99.90
19966;DHT22;10144;50.874;4.762;2023-06-10T08:29:21;31.30;99.90
19966;DHT22;10144;50.874;4.762;2023-06-10T08:31:50;31.90;99.90
19966;DHT22;10144;50.874;4.762;2023-06-10T08:34:15;32.60;99.90
19966;DHT22;10144;50.874;4.762;2023-06-10T08:36:42;32.90;99.90
19966;DHT22;10144;50.874;4.762;2023-06-10T08:39:14;33.20;99.90
19966;DHT22;10144;50.874;4.762;2023-06-10T08:41:43;33.30;99.90
19966;DHT22;10144;50.874;4.762;2023-06-10T08:44:28;33.20;99.90
19966;DHT22;10144;50.874;4.762;2023-06-10T08:46:59;31.80;99.90
19966;DHT22;10144;50.874;4.762;2023-06-10T08:49:26;31.60;99.90
19966;DHT22;10144;50.874;4.762;2023-06-10T08:51:59;32.00;99.90
19966;DHT22;10144;50.874;4.762;2023-06-10T08:54:32;32.30;99.90
19966;DHT22;10144;50.874;4.762;2023-06-10T08:57:05;32.80;99.90
19966;DHT22;10144;50.874;4.762;2023-06-10T08:59:31;32.50;99.90
19966;DHT22;10144;50.874;4.762;2023-06-10T09:02:04;32.60;99.90
19966;DHT22;10144;50.874;4.762;2023-06-10T09:04:38;32.80;99.90
19966;DHT22;10144;50.874;4.762;2023-06-10T09:07:10;32.70;99.90
19966;DHT22;10144;50.874;4.762;2023-06-10T09:09:42;33.30;99.90
19966;DHT22;10144;50.874;4.762;2023-06-10T09:12:10;33.20;99.90
19966;DHT22;10144;50.874;4.762;2023-06-10T09:14:36;32.90;99.90
19966;DHT22;10144;50.874;4.762;2023-06-10T09:17:03;32.70;99.90
19966;DHT22;10144;50.874;4.762;2023-06-10T09:19:35;32.70;99.90
19966;DHT22;10144;50.874;4.762;2023-06-10T09:22:02;32.50;99.90
19966;DHT22;10144;50.874;4.762;2023-06-10T09:24:28;32.60;99.90
19966;DHT22;10144;50.874;4.762;2023-06-10T09:27:04;32.80;99.90
19966;DHT22;10144;50.874;4.762;2023-06-10T09:29:32;32.90;99.90
19966;DHT22;10144;50.874;4.762;2023-06-10T09:31:58;33.00;99.90
19966;DHT22;10144;50.874;4.762;2023-06-10T09:34:25;33.00;98.20
19966;DHT22;10144;50.874;4.762;2023-06-10T09:36:53;32.60;99.90
19966;DHT22;10144;50.874;4.762;2023-06-10T09:39:19;33.20;99.90
19966;DHT22;10144;50.874;4.762;2023-06-10T09:41:46;34.00;99.90
19966;DHT22;10144;50.874;4.762;2023-06-10T09:44:12;35.00;99.50
19966;DHT22;10144;50.874;4.762;2023-06-10T09:46:39;34.80;97.30
19966;DHT22;10144;50.874;4.762;2023-06-10T09:49:05;34.20;95.50
19966;DHT22;10144;50.874;4.762;2023-06-10T09:51:32;33.20;97.10
19966;DHT22;10144;50.874;4.762;2023-06-10T09:53:59;33.80;99.00
19966;DHT22;10144;50.874;4.762;2023-06-10T09:56:35;34.60;97.60
19966;DHT22;10144;50.874;4.762;2023-06-10T09:59:03;34.70;98.80
19966;DHT22;10144;50.874;4.762;2023-06-10T10:01:32;34.80;96.30
19966;DHT22;10144;50.874;4.762;2023-06-10T10:03:59;34.20;96.40
19966;DHT22;10144;50.874;4.762;2023-06-10T10:06:26;33.90;94.90
19966;DHT22;10144;50.874;4.762;2023-06-10T10:08:52;34.30;98.60
19966;DHT22;10144;50.874;4.762;2023-06-10T10:11:20;34.60;96.20
19966;DHT22;10144;50.874;4.762;2023-06-10T10:13:49;34.40;95.60
19966;DHT22;10144;50.874;4.762;2023-06-10T10:16:17;34.70;94.00
19966;DHT22;10144;50.874;4.762;2023-06-10T10:18:53;34.40;93.50
19966;DHT22;10144;50.874;4.762;2023-06-10T10:21:31;34.10;93.90
19966;DHT22;10144;50.874;4.762;2023-06-10T10:24:16;34.00;93.50
19966;DHT22;10144;50.874;4.762;2023-06-10T10:26:46;34.00;94.50
19966;DHT22;10144;50.874;4.762;2023-06-10T10:31:44;33.50;93.70
19966;DHT22;10144;50.874;4.762;2023-06-10T10:34:15;33.10;96.70
19966;DHT22;10144;50.874;4.762;2023-06-10T10:36:45;33.30;92.40
19966;DHT22;10144;50.874;4.762;2023-06-10T10:39:12;33.40;94.90
19966;DHT22;10144;50.874;4.762;2023-06-10T10:41:38;32.70;93.10
19966;DHT22;10144;50.874;4.762;2023-06-10T10:44:06;32.30;93.50
19966;DHT22;10144;50.874;4.762;2023-06-10T10:46:48;32.20;95.10
19966;DHT22;10144;50.874;4.762;2023-06-10T10:49:15;32.70;93.50
19966;DHT22;10144;50.874;4.762;2023-06-10T10:52:00;32.50;92.60
19966;DHT22;10144;50.874;4.762;2023-06-10T10:54:33;33.00;96.50
19966;DHT22;10144;50.874;4.762;2023-06-10T10:57:13;33.30;93.40
19966;DHT22;10144;50.874;4.762;2023-06-10T11:05:14;32.70;92.30
19966;DHT22;10144;50.874;4.762;2023-06-10T11:07:40;33.00;94.20
19966;DHT22;10144;50.874;4.762;2023-06-10T11:10:11;32.30;95.00
19966;DHT22;10144;50.874;4.762;2023-06-10T11:15:26;32.90;94.20
19966;DHT22;10144;50.874;4.762;2023-06-10T11:20:55;33.70;93.10
19966;DHT22;10144;50.874;4.762;2023-06-10T11:26:30;33.70;91.60
19966;DHT22;10144;50.874;4.762;2023-06-10T11:29:05;34.00;86.10
19966;DHT22;10144;50.874;4.762;2023-06-10T11:31:32;33.30;84.40
19966;DHT22;10144;50.874;4.762;2023-06-10T11:34:03;33.20;83.70
19966;DHT22;10144;50.874;4.762;2023-06-10T11:36:34;33.00;88.80
19966;DHT22;10144;50.874;4.762;2023-06-10T11:39:05;32.40;86.00
19966;DHT22;10144;50.874;4.762;2023-06-10T11:41:32;32.50;86.90
19966;DHT22;10144;50.874;4.762;2023-06-10T11:44:08;33.30;89.70
19966;DHT22;10144;50.874;4.762;2023-06-10T11:46:34;33.80;87.60
19966;DHT22;10144;50.874;4.762;2023-06-10T11:49:01;34.10;91.30
19966;DHT22;10144;50.874;4.762;2023-06-10T11:51:39;33.30;84.80
19966;DHT22;10144;50.874;4.762;2023-06-10T11:54:08;32.60;90.90
19966;DHT22;10144;50.874;4.762;2023-06-10T11:56:35;32.80;86.70
19966;DHT22;10144;50.874;4.762;2023-06-10T11:59:04;32.60;85.00
19966;DHT22;10144;50.874;4.762;2023-06-10T12:01:32;32.30;87.70
19966;DHT22;10144;50.874;4.762;2023-06-10T12:04:11;32.20;84.20
19966;DHT22;10144;50.874;4.762;2023-06-10T12:06:48;32.90;87.30
19966;DHT22;10144;50.874;4.762;2023-06-10T12:09:18;33.30;82.70
19966;DHT22;10144;50.874;4.762;2023-06-10T12:11:44;33.90;87.60
19966;DHT22;10144;50.874;4.762;2023-06-10T12:14:13;33.50;82.10
19966;DHT22;10144;50.874;4.762;2023-06-10T12:16:39;32.30;85.50
19966;DHT22;10144;50.874;4.762;2023-06-10T12:19:06;32.20;86.80
19966;DHT22;10144;50.874;4.762;2023-06-10T12:21:33;31.80;88.40
19966;DHT22;10144;50.874;4.762;2023-06-10T12:26:40;31.90;86.60
19966;DHT22;10144;50.874;4.762;2023-06-10T12:35:11;31.30;83.60
19966;DHT22;10144;50.874;4.762;2023-06-10T12:37:39;31.70;87.90
19966;DHT22;10144;50.874;4.762;2023-06-10T12:40:05;31.90;85.70
19966;DHT22;10144;50.874;4.762;2023-06-10T12:42:32;31.90;83.50
19966;DHT22;10144;50.874;4.762;2023-06-10T12:44:59;31.00;88.60
19966;DHT22;10144;50.874;4.762;2023-06-10T12:47:33;31.20;90.00
19966;DHT22;10144;50.874;4.762;2023-06-10T12:50:00;31.00;86.40
19966;DHT22;10144;50.874;4.762;2023-06-10T12:52:26;31.00;92.10
19966;DHT22;10144;50.874;4.762;2023-06-10T12:54:53;30.80;90.10
19966;DHT22;10144;50.874;4.762;2023-06-10T12:57:19;30.70;88.90
19966;DHT22;10144;50.874;4.762;2023-06-10T12:59:45;30.90;88.90
19966;DHT22;10144;50.874;4.762;2023-06-10T13:02:16;30.90;87.10
19966;DHT22;10144;50.874;4.762;2023-06-10T13:04:44;30.40;85.30
19966;DHT22;10144;50.874;4.762;2023-06-10T13:07:10;30.40;87.50
19966;DHT22;10144;50.874;4.762;2023-06-10T13:09:36;30.30;89.90
19966;DHT22;10144;50.874;4.762;2023-06-10T13:12:02;30.10;90.10
19966;DHT22;10144;50.874;4.762;2023-06-10T13:14:28;30.00;91.10
19966;DHT22;10144;50.874;4.762;2023-06-10T13:16:54;29.90;90.40
19966;DHT22;10144;50.874;4.762;2023-06-10T13:19:20;29.80;91.70
19966;DHT22;10144;50.874;4.762;2023-06-10T13:21:49;29.80;90.20
19966;DHT22;10144;50.874;4.762;2023-06-10T13:24:15;30.00;90.20
19966;DHT22;10144;50.874;4.762;2023-06-10T13:26:40;30.30;90.30
19966;DHT22;10144;50.874;4.762;2023-06-10T13:29:06;30.40;87.00
19966;DHT22;10144;50.874;4.762;2023-06-10T13:31:34;30.00;92.10
19966;DHT22;10144;50.874;4.762;2023-06-10T13:34:00;29.90;91.50
19966;DHT22;10144;50.874;4.762;2023-06-10T13:36:25;29.90;90.90
19966;DHT22;10144;50.874;4.762;2023-06-10T13:38:51;30.10;87.80
19966;DHT22;10144;50.874;4.762;2023-06-10T13:41:16;30.40;91.10
19966;DHT22;10144;50.874;4.762;2023-06-10T13:43:43;30.50;90.50
19966;DHT22;10144;50.874;4.762;2023-06-10T13:46:09;30.20;90.30
19966;DHT22;10144;50.874;4.762;2023-06-10T13:48:34;29.90;88.30
19966;DHT22;10144;50.874;4.762;2023-06-10T13:51:00;29.90;90.80
19966;DHT22;10144;50.874;4.762;2023-06-10T13:53:26;30.10;92.00
19966;DHT22;10144;50.874;4.762;2023-06-10T13:55:51;30.30;88.10
19966;DHT22;10144;50.874;4.762;2023-06-10T13:58:17;30.60;91.60
19966;DHT22;10144;50.874;4.762;2023-06-10T14:00:43;30.30;88.40
19966;DHT22;10144;50.874;4.762;2023-06-10T14:03:08;30.20;90.70
19966;DHT22;10144;50.874;4.762;2023-06-10T14:05:34;30.20;87.10
19966;DHT22;10144;50.874;4.762;2023-06-10T14:08:00;30.20;87.00
19966;DHT22;10144;50.874;4.762;2023-06-10T14:10:25;30.30;86.80
19966;DHT22;10144;50.874;4.762;2023-06-10T14:12:51;30.20;90.60
19966;DHT22;10144;50.874;4.762;2023-06-10T14:15:17;30.20;91.60
19966;DHT22;10144;50.874;4.762;2023-06-10T14:17:42;30.20;90.10
19966;DHT22;10144;50.874;4.762;2023-06-10T14:20:08;30.10;88.90
19966;DHT22;10144;50.874;4.762;2023-06-10T14:22:34;30.00;85.20
19966;DHT22;10144;50.874;4.762;2023-06-10T14:25:00;30.20;90.00
19966;DHT22;10144;50.874;4.762;2023-06-10T14:27:25;30.10;91.20
19966;DHT22;10144;50.874;4.762;2023-06-10T14:29:51;30.10;89.60
19966;DHT22;10144;50.874;4.762;2023-06-10T14:32:16;30.10;86.30
19966;DHT22;10144;50.874;4.762;2023-06-10T14:34:42;30.20;87.00
19966;DHT22;10144;50.874;4.762;2023-06-10T14:37:10;30.20;87.50
19966;DHT22;10144;50.874;4.762;2023-06-10T14:39:35;30.30;88.10
19966;DHT22;10144;50.874;4.762;2023-06-10T14:42:01;30.50;87.30
19966;DHT22;10144;50.874;4.762;2023-06-10T14:44:27;30.30;85.90
19966;DHT22;10144;50.874;4.762;2023-06-10T14:46:52;30.20;88.80
19966;DHT22;10144;50.874;4.762;2023-06-10T14:49:18;30.10;87.70
19966;DHT22;10144;50.874;4.762;2023-06-10T14:51:44;30.00;86.90
19966;DHT22;10144;50.874;4.762;2023-06-10T14:54:10;29.90;90.80
19966;DHT22;10144;50.874;4.762;2023-06-10T14:56:35;30.00;88.60
19966;DHT22;10144;50.874;4.762;2023-06-10T14:59:01;30.00;90.50
19966;DHT22;10144;50.874;4.762;2023-06-10T15:01:29;29.90;91.10
19966;DHT22;10144;50.874;4.762;2023-06-10T15:03:55;30.00;91.20
19966;DHT22;10144;50.874;4.762;2023-06-10T15:06:22;30.20;89.40
19966;DHT22;10144;50.874;4.762;2023-06-10T15:08:48;30.20;89.60
19966;DHT22;10144;50.874;4.762;2023-06-10T15:11:14;30.20;87.60
19966;DHT22;10144;50.874;4.762;2023-06-10T15:13:40;30.10;88.10
19966;DHT22;10144;50.874;4.762;2023-06-10T15:16:07;30.20;89.20
19966;DHT22;10144;50.874;4.762;2023-06-10T15:18:33;30.20;90.60
19966;DHT22;10144;50.874;4.762;2023-06-10T15:21:00;30.10;90.70
19966;DHT22;10144;50.874;4.762;2023-06-10T15:23:25;30.10;90.10
19966;DHT22;10144;50.874;4.762;2023-06-10T15:25:51;30.00;91.60
19966;DHT22;10144;50.874;4.762;2023-06-10T15:28:17;29.90;89.70
19966;DHT22;10144;50.874;4.762;2023-06-10T15:30:43;30.00;90.00
19966;DHT22;10144;50.874;4.762;2023-06-10T15:33:08;30.00;90.20
19966;DHT22;10144;50.874;4.762;2023-06-10T15:35:34;30.10;90.20
19966;DHT22;10144;50.874;4.762;2023-06-10T15:37:59;30.10;91.40
19966;DHT22;10144;50.874;4.762;2023-06-10T15:40:25;30.00;92.20
19966;DHT22;10144;50.874;4.762;2023-06-10T15:42:51;30.00;90.10
19966;DHT22;10144;50.874;4.762;2023-06-10T15:45:17;30.00;90.90
19966;DHT22;10144;50.874;4.762;2023-06-10T15:47:42;30.10;90.10
19966;DHT22;10144;50.874;4.762;2023-06-10T15:50:09;30.10;89.90
19966;DHT22;10144;50.874;4.762;2023-06-10T15:52:35;30.10;91.50
19966;DHT22;10144;50.874;4.762;2023-06-10T15:55:04;30.00;88.90
19966;DHT22;10144;50.874;4.762;2023-06-10T15:57:30;30.10;89.10
19966;DHT22;10144;50.874;4.762;2023-06-10T16:00:01;30.10;87.20
19966;DHT22;10144;50.874;4.762;2023-06-10T16:02:27;30.30;92.10
19966;DHT22;10144;50.874;4.762;2023-06-10T16:04:54;30.20;87.80
19966;DHT22;10144;50.874;4.762;2023-06-10T16:07:19;30.00;89.00
19966;DHT22;10144;50.874;4.762;2023-06-10T16:09:45;30.00;90.10
19966;DHT22;10144;50.874;4.762;2023-06-10T16:12:11;30.00;93.30
19966;DHT22;10144;50.874;4.762;2023-06-10T16:14:36;29.80;91.20
19966;DHT22;10144;50.874;4.762;2023-06-10T16:17:02;29.90;92.20
19966;DHT22;10144;50.874;4.762;2023-06-10T16:19:28;29.90;89.70
19966;DHT22;10144;50.874;4.762;2023-06-10T16:21:53;29.70;91.30
19966;DHT22;10144;50.874;4.762;2023-06-10T16:24:19;29.80;88.70
19966;DHT22;10144;50.874;4.762;2023-06-10T16:26:44;29.90;87.90
19966;DHT22;10144;50.874;4.762;2023-06-10T16:29:10;29.90;89.40
19966;DHT22;10144;50.874;4.762;2023-06-10T16:31:35;30.00;86.90
19966;DHT22;10144;50.874;4.762;2023-06-10T16:34:01;29.70;86.20
19966;DHT22;10144;50.874;4.762;2023-06-10T16:36:27;29.60;89.40
19966;DHT22;10144;50.874;4.762;2023-06-10T16:38:53;29.60;89.00
19966;DHT22;10144;50.874;4.762;2023-06-10T16:41:23;29.70;90.60
19966;DHT22;10144;50.874;4.762;2023-06-10T16:43:48;29.70;90.20
19966;DHT22;10144;50.874;4.762;2023-06-10T16:46:14;29.80;90.40
19966;DHT22;10144;50.874;4.762;2023-06-10T16:48:40;29.90;86.40
19966;DHT22;10144;50.874;4.762;2023-06-10T16:51:07;29.90;87.30
19966;DHT22;10144;50.874;4.762;2023-06-10T16:53:33;30.10;89.00
19966;DHT22;10144;50.874;4.762;2023-06-10T16:55:59;30.00;88.90
19966;DHT22;10144;50.874;4.762;2023-06-10T16:58:24;30.00;88.10
19966;DHT22;10144;50.874;4.762;2023-06-10T17:00:50;29.90;88.10
19966;DHT22;10144;50.874;4.762;2023-06-10T17:03:17;29.60;89.30
19966;DHT22;10144;50.874;4.762;2023-06-10T17:05:43;29.50;91.70
19966;DHT22;10144;50.874;4.762;2023-06-10T17:08:08;29.40;91.50